createdAt,value
2022-11-06T00:01:18.413Z,2.60
2022-11-06T00:03:47.869Z,2.67
2022-11-06T00:06:36.374Z,2.71
2022-11-06T00:09:09.266Z,2.79
2022-11-06T00:11:43.116Z,2.85
2022-11-06T00:14:13.224Z,2.90
2022-11-06T00:16:45.983Z,2.93
2022-11-06T00:19:17.544Z,2.95
2022-11-06T00:21:47.487Z,2.94
2022-11-06T00:24:17.756Z,2.90
2022-11-06T00:26:53.093Z,2.84
2022-11-06T00:29:23.947Z,2.79
2022-11-06T00:31:54.771Z,2.74
2022-11-06T00:34:24.206Z,2.76
2022-11-06T00:36:53.705Z,2.73
2022-11-06T00:39:23.112Z,2.66
2022-11-06T00:41:52.549Z,2.62
2022-11-06T00:44:21.983Z,2.59
2022-11-06T00:46:51.440Z,2.51
2022-11-06T00:49:22.277Z,2.43
2022-11-06T00:51:51.676Z,2.35
2022-11-06T00:54:21.594Z,2.32
2022-11-06T00:56:51.326Z,2.33
2022-11-06T00:59:21.114Z,2.32
2022-11-06T01:01:51.045Z,2.28
2022-11-06T01:04:25.133Z,2.21
2022-11-06T01:06:57.626Z,2.14
2022-11-06T01:09:29.413Z,2.14
2022-11-06T01:12:16.410Z,2.18
2022-11-06T01:14:46.063Z,2.23
2022-11-06T01:17:15.938Z,2.24
2022-11-06T01:19:46.881Z,2.24
2022-11-06T01:22:16.914Z,2.15
2022-11-06T01:24:46.426Z,2.05
2022-11-06T01:27:31.337Z,2.03
2022-11-06T01:30:01.555Z,2.03
2022-11-06T01:32:30.968Z,2.04
2022-11-06T01:35:01.825Z,2.00
2022-11-06T01:37:31.248Z,1.98
2022-11-06T01:40:00.689Z,1.86
2022-11-06T01:42:30.289Z,1.79
2022-11-06T01:45:39.080Z,1.64
2022-11-06T01:48:08.785Z,1.57
2022-11-06T01:50:40.577Z,1.56
2022-11-06T01:53:10.293Z,1.55
2022-11-06T01:55:45.457Z,1.50
2022-11-06T01:58:19.532Z,1.45
2022-11-06T02:00:50.461Z,1.40
2022-11-06T02:03:20.607Z,1.32
2022-11-06T02:05:52.225Z,1.27
2022-11-06T02:08:23.561Z,1.18
2022-11-06T02:10:53.920Z,1.13
2022-11-06T02:13:41.931Z,1.10
2022-11-06T02:16:23.205Z,1.02
2022-11-06T02:19:21.812Z,0.99
2022-11-06T02:22:22.539Z,0.95
2022-11-06T02:25:22.276Z,0.89
2022-11-06T02:28:03.196Z,0.84
2022-11-06T02:30:38.863Z,0.80
2022-11-06T02:33:14.149Z,0.80
2022-11-06T02:35:48.202Z,0.82
2022-11-06T02:38:25.338Z,0.79
2022-11-06T02:40:59.436Z,0.79
2022-11-06T02:43:37.354Z,0.74
2022-11-06T02:46:13.829Z,0.68
2022-11-06T02:48:51.431Z,0.65
2022-11-06T02:51:26.951Z,0.62
2022-11-06T02:54:02.998Z,0.57
2022-11-06T02:56:39.411Z,0.55
2022-11-06T02:59:16.458Z,0.52
2022-11-06T03:01:51.258Z,0.46
2022-11-06T03:04:30.045Z,0.42
2022-11-06T03:07:07.135Z,0.44
2022-11-06T03:09:38.306Z,0.47
2022-11-06T03:12:26.174Z,0.47
2022-11-06T03:15:05.128Z,0.46
2022-11-06T03:17:44.164Z,0.45
2022-11-06T03:20:31.402Z,0.39
2022-11-06T03:23:14.487Z,0.38
2022-11-06T03:25:52.285Z,0.34
2022-11-06T03:28:31.839Z,0.31
2022-11-06T03:31:12.574Z,0.27
2022-11-06T03:33:51.042Z,0.24
2022-11-06T03:36:26.046Z,0.22
2022-11-06T03:39:01.346Z,0.20
2022-11-06T03:41:39.988Z,0.15
2022-11-06T03:44:14.924Z,0.10
2022-11-06T03:46:53.483Z,0.09
2022-11-06T03:49:30.906Z,0.07
2022-11-06T03:52:06.475Z,0.07
2022-11-06T03:54:42.640Z,0.09
2022-11-06T03:57:18.364Z,0.10
2022-11-06T03:59:55.734Z,0.11
2022-11-06T04:02:29.579Z,0.09
2022-11-06T04:05:05.719Z,0.10
2022-11-06T04:07:40.990Z,0.11
2022-11-06T04:10:30.342Z,0.12
2022-11-06T04:13:18.302Z,0.12
2022-11-06T04:15:54.110Z,0.12
2022-11-06T04:18:24.883Z,0.12
2022-11-06T04:21:25.838Z,0.13
2022-11-06T04:24:37.673Z,0.15
2022-11-06T04:27:27.967Z,0.18
2022-11-06T04:30:10.523Z,0.25
2022-11-06T04:33:02.916Z,0.29
2022-11-06T04:35:49.651Z,0.32
2022-11-06T04:38:29.418Z,0.36
2022-11-06T04:41:15.515Z,0.43
2022-11-06T04:43:50.287Z,0.49
2022-11-06T04:46:25.208Z,0.52
2022-11-06T04:48:55.450Z,0.55
2022-11-06T04:51:36.547Z,0.56
2022-11-06T04:54:10.453Z,0.55
2022-11-06T04:56:45.818Z,0.55
2022-11-06T04:59:19.323Z,0.53
2022-11-06T05:01:48.867Z,0.50
2022-11-06T05:04:18.576Z,0.48
2022-11-06T05:06:49.449Z,0.46
2022-11-06T05:09:19.155Z,0.49
2022-11-06T05:11:48.560Z,0.50
2022-11-06T05:14:18.390Z,0.50
2022-11-06T05:16:47.983Z,0.47
2022-11-06T05:19:17.614Z,0.47
2022-11-06T05:22:06.007Z,0.46
2022-11-06T05:24:35.687Z,0.43
2022-11-06T05:27:05.532Z,0.43
2022-11-06T05:29:35.155Z,0.44
2022-11-06T05:32:05.034Z,0.47
2022-11-06T05:34:35.051Z,0.48
2022-11-06T05:37:06.039Z,0.53
2022-11-06T05:39:41.409Z,0.56
2022-11-06T05:42:11.546Z,0.61
2022-11-06T05:44:41.231Z,0.66
2022-11-06T05:47:11.106Z,0.70
2022-11-06T05:49:40.692Z,0.74
2022-11-06T05:52:11.746Z,0.81
2022-11-06T05:54:41.554Z,0.88
2022-11-06T05:57:11.065Z,0.90
2022-11-06T05:59:40.599Z,0.93
2022-11-06T06:02:10.953Z,0.94
2022-11-06T06:04:40.870Z,0.95
2022-11-06T06:07:11.815Z,0.97
2022-11-06T06:09:41.415Z,0.96
2022-11-06T06:12:14.517Z,0.93
2022-11-06T06:15:38.980Z,0.89
2022-11-06T06:18:14.300Z,0.87
2022-11-06T06:20:47.278Z,0.87
2022-11-06T06:23:18.676Z,0.85
2022-11-06T06:25:48.258Z,0.82
2022-11-06T06:28:17.743Z,0.83
2022-11-06T06:31:12.936Z,0.79
2022-11-06T06:33:42.694Z,0.71
2022-11-06T06:36:12.456Z,0.63
2022-11-06T06:38:43.274Z,0.61
2022-11-06T06:41:12.687Z,0.60
2022-11-06T06:43:42.047Z,0.61
2022-11-06T06:46:11.973Z,0.66
2022-11-06T06:48:41.563Z,0.66
2022-11-06T06:51:11.064Z,0.59
2022-11-06T06:53:41.784Z,0.52
2022-11-06T06:56:11.546Z,0.49
2022-11-06T06:58:40.955Z,0.52
2022-11-06T07:01:11.671Z,0.55
2022-11-06T07:03:41.280Z,0.51
2022-11-06T07:06:10.717Z,0.53
2022-11-06T07:08:40.125Z,0.52
2022-11-06T07:11:12.798Z,0.52
2022-11-06T07:13:42.397Z,0.57
2022-11-06T07:16:12.928Z,0.62
2022-11-06T07:18:43.012Z,0.64
2022-11-06T07:21:14.837Z,0.70
2022-11-06T07:23:44.483Z,0.74
2022-11-06T07:26:15.527Z,0.78
2022-11-06T07:28:44.957Z,0.84
2022-11-06T07:31:14.829Z,0.91
2022-11-06T07:33:44.211Z,0.99
2022-11-06T07:36:15.174Z,1.08
2022-11-06T07:38:45.606Z,1.14
2022-11-06T07:41:17.046Z,1.19
2022-11-06T07:43:50.188Z,1.27
2022-11-06T07:46:19.619Z,1.31
2022-11-06T07:48:49.911Z,1.38
2022-11-06T07:51:19.407Z,1.45
2022-11-06T07:53:49.042Z,1.52
2022-11-06T07:56:20.063Z,1.61
2022-11-06T07:58:49.488Z,1.72
2022-11-06T08:01:19.675Z,1.84
2022-11-06T08:03:49.118Z,1.94
2022-11-06T08:06:18.645Z,2.07
2022-11-06T08:08:48.611Z,2.19
2022-11-06T08:11:19.786Z,2.31
2022-11-06T08:13:49.235Z,2.43
2022-11-06T08:16:18.737Z,2.56
2022-11-06T08:18:48.205Z,2.67
2022-11-06T08:21:17.615Z,2.79
2022-11-06T08:23:47.005Z,2.89
2022-11-06T08:26:17.182Z,2.96
2022-11-06T08:28:48.039Z,3.04
2022-11-06T08:31:17.543Z,3.13
2022-11-06T08:33:46.928Z,3.21
2022-11-06T08:36:16.947Z,3.29
2022-11-06T08:38:49.082Z,3.35
2022-11-06T08:41:20.562Z,3.40
2022-11-06T08:43:54.148Z,3.47
2022-11-06T08:46:23.687Z,3.52
2022-11-06T08:48:53.207Z,3.58
2022-11-06T08:51:22.809Z,3.65
2022-11-06T08:53:52.318Z,3.73
2022-11-06T08:56:21.798Z,3.82
2022-11-06T08:58:55.326Z,3.93
2022-11-06T09:01:26.839Z,4.04
2022-11-06T09:03:56.355Z,4.13
2022-11-06T09:06:26.889Z,4.22
2022-11-06T09:08:57.516Z,4.33
2022-11-06T09:11:27.000Z,4.43
2022-11-06T09:13:56.429Z,4.53
2022-11-06T09:16:27.381Z,4.57
2022-11-06T09:18:56.992Z,4.67
2022-11-06T09:21:26.607Z,4.73
2022-11-06T09:23:56.047Z,4.79
2022-11-06T09:26:25.714Z,4.84
2022-11-06T09:28:55.073Z,4.90
2022-11-06T09:31:25.808Z,4.98
2022-11-06T09:33:55.875Z,5.09
2022-11-06T09:36:25.512Z,5.17
2022-11-06T09:38:54.895Z,5.28
2022-11-06T09:41:36.880Z,5.35
2022-11-06T09:44:27.091Z,5.44
2022-11-06T09:47:01.745Z,5.54
2022-11-06T09:49:37.161Z,5.58
2022-11-06T09:52:13.387Z,5.63
2022-11-06T09:54:53.354Z,5.70
2022-11-06T09:57:36.047Z,5.81
2022-11-06T10:00:08.742Z,5.91
2022-11-06T10:02:48.695Z,6.04
2022-11-06T10:05:27.087Z,6.15
2022-11-06T10:07:59.469Z,6.29
2022-11-06T10:10:40.664Z,6.42
2022-11-06T10:13:46.096Z,6.53
2022-11-06T10:16:27.967Z,6.63
2022-11-06T10:19:12.977Z,6.72
2022-11-06T10:21:52.077Z,6.81
2022-11-06T10:24:25.238Z,6.89
2022-11-06T10:26:58.453Z,6.94
2022-11-06T10:30:05.207Z,6.99
2022-11-06T10:33:12.772Z,7.02
2022-11-06T10:35:51.341Z,7.07
2022-11-06T10:38:26.314Z,7.12
2022-11-06T10:40:57.332Z,7.20
2022-11-06T10:43:33.413Z,7.23
2022-11-06T10:46:14.246Z,7.29
2022-11-06T10:48:51.030Z,7.33
2022-11-06T10:52:00.234Z,7.39
2022-11-06T10:54:50.398Z,7.45
2022-11-06T10:57:36.907Z,7.49
2022-11-06T11:00:13.131Z,7.57
2022-11-06T11:02:48.349Z,7.59
2022-11-06T11:05:21.594Z,7.65
2022-11-06T11:07:52.795Z,7.68
2022-11-06T11:10:32.684Z,7.73
2022-11-06T11:13:08.692Z,7.78
2022-11-06T11:15:50.212Z,7.86
2022-11-06T11:18:30.928Z,7.91
2022-11-06T11:21:21.379Z,7.95
2022-11-06T11:24:09.870Z,8.03
2022-11-06T11:26:44.556Z,8.08
2022-11-06T11:29:19.219Z,8.13
2022-11-06T11:31:53.952Z,8.19
2022-11-06T11:34:26.788Z,8.22
2022-11-06T11:37:01.107Z,8.27
2022-11-06T11:39:34.931Z,8.31
2022-11-06T11:42:28.423Z,8.37
2022-11-06T11:45:20.598Z,8.42
2022-11-06T11:47:52.235Z,8.46
2022-11-06T11:50:31.474Z,8.52
2022-11-06T11:53:12.058Z,8.59
2022-11-06T11:55:48.095Z,8.68
2022-11-06T11:58:23.285Z,8.75
2022-11-06T12:00:58.562Z,8.80
2022-11-06T12:03:34.391Z,8.89
2022-11-06T12:06:11.321Z,8.96
2022-11-06T12:08:49.179Z,9.02
2022-11-06T12:11:26.238Z,9.10
2022-11-06T12:14:37.577Z,9.15
2022-11-06T12:17:17.394Z,9.20
2022-11-06T12:19:53.419Z,9.23
2022-11-06T12:22:29.941Z,9.28
2022-11-06T12:25:10.614Z,9.32
2022-11-06T12:27:46.504Z,9.38
2022-11-06T12:30:22.271Z,9.46
2022-11-06T12:33:05.360Z,9.52
2022-11-06T12:35:42.793Z,9.59
2022-11-06T12:38:25.491Z,9.61
2022-11-06T12:41:02.670Z,9.69
2022-11-06T12:43:42.007Z,9.75
2022-11-06T12:46:27.817Z,9.84
2022-11-06T12:49:37.077Z,9.94
2022-11-06T12:52:25.971Z,10.00
2022-11-06T12:55:20.647Z,10.08
2022-11-06T12:58:41.597Z,10.11
2022-11-06T13:01:21.686Z,10.15
2022-11-06T13:04:15.371Z,10.20
2022-11-06T13:07:41.782Z,10.29
2022-11-06T13:10:34.624Z,10.43
2022-11-06T13:13:29.303Z,10.55
2022-11-06T13:16:14.732Z,10.69
2022-11-06T13:18:53.191Z,10.78
2022-11-06T13:21:33.537Z,10.87
2022-11-06T13:24:08.875Z,10.98
2022-11-06T13:26:44.763Z,11.06
2022-11-06T13:29:18.689Z,11.19
2022-11-06T13:31:57.651Z,11.43
2022-11-06T13:34:32.963Z,11.72
2022-11-06T13:37:02.920Z,12.06
2022-11-06T13:39:38.647Z,12.45
2022-11-06T13:42:24.848Z,12.74
2022-11-06T13:44:55.694Z,12.98
2022-11-06T13:47:36.734Z,13.29
2022-11-06T13:50:17.875Z,13.69
2022-11-06T13:53:02.360Z,14.11
2022-11-06T13:56:00.081Z,14.49
2022-11-06T13:59:08.868Z,14.64
2022-11-06T14:01:59.344Z,14.82
2022-11-06T14:04:58.935Z,14.84
2022-11-06T14:07:31.933Z,14.87
2022-11-06T14:10:01.318Z,14.82
2022-11-06T14:12:30.823Z,14.84
2022-11-06T14:15:24.683Z,14.83
2022-11-06T14:17:58.441Z,14.72
2022-11-06T14:20:35.277Z,14.62
2022-11-06T14:23:52.441Z,14.51
2022-11-06T14:26:42.466Z,14.35
2022-11-06T14:30:05.163Z,14.31
2022-11-06T14:32:48.238Z,14.33
2022-11-06T14:36:13.809Z,14.27
2022-11-06T14:38:43.605Z,14.20
2022-11-06T14:41:59.587Z,13.95
2022-11-06T14:44:51.611Z,13.66
2022-11-06T14:47:35.996Z,13.28
2022-11-06T14:50:24.602Z,12.95
2022-11-06T14:53:01.711Z,12.48
2022-11-06T14:55:36.046Z,12.07
2022-11-06T14:58:20.710Z,11.78
2022-11-06T15:00:55.018Z,11.52
2022-11-06T15:03:33.448Z,11.32
2022-11-06T15:06:21.895Z,11.09
2022-11-06T15:09:06.051Z,10.83
2022-11-06T15:12:00.248Z,10.58
2022-11-06T15:14:57.044Z,10.37
2022-11-06T15:17:36.481Z,10.16
2022-11-06T15:20:28.221Z,9.96
2022-11-06T15:23:18.541Z,9.73
2022-11-06T15:26:02.021Z,9.54
2022-11-06T15:28:42.936Z,9.36
2022-11-06T15:31:18.092Z,9.20
2022-11-06T15:33:59.160Z,9.06
2022-11-06T15:36:33.921Z,8.96
2022-11-06T15:39:24.319Z,8.84
2022-11-06T15:41:55.160Z,8.73
2022-11-06T15:44:26.369Z,8.61
2022-11-06T15:46:58.005Z,8.52
2022-11-06T15:49:27.831Z,8.38
2022-11-06T15:52:00.693Z,8.22
2022-11-06T15:54:37.452Z,8.05
2022-11-06T15:57:19.507Z,7.91
2022-11-06T15:59:48.978Z,7.74
2022-11-06T16:02:22.760Z,7.55
2022-11-06T16:04:53.518Z,7.37
2022-11-06T16:07:23.900Z,7.20
2022-11-06T16:09:53.615Z,7.06
2022-11-06T16:12:24.668Z,6.93
2022-11-06T16:14:54.453Z,6.84
2022-11-06T16:17:27.161Z,6.70
2022-11-06T16:20:02.581Z,6.58
2022-11-06T16:22:35.095Z,6.47
2022-11-06T16:25:08.129Z,6.34
2022-11-06T16:27:41.884Z,6.21
2022-11-06T16:30:25.292Z,6.10
2022-11-06T16:32:55.307Z,6.02
2022-11-06T16:35:33.595Z,5.95
2022-11-06T16:38:42.239Z,5.87
2022-11-06T16:41:31.715Z,5.83
2022-11-06T16:44:31.313Z,5.75
2022-11-06T16:47:19.700Z,5.70
2022-11-06T16:49:53.860Z,5.62
2022-11-06T16:52:28.955Z,5.56
2022-11-06T16:55:03.299Z,5.52
2022-11-06T16:57:37.190Z,5.44
2022-11-06T17:00:23.807Z,5.40
2022-11-06T17:02:57.730Z,5.35
2022-11-06T17:05:30.119Z,5.31
2022-11-06T17:08:23.897Z,5.27
2022-11-06T17:10:55.823Z,5.22
2022-11-06T17:13:29.365Z,5.19
2022-11-06T17:16:02.483Z,5.19
2022-11-06T17:18:35.804Z,5.22
2022-11-06T17:21:08.892Z,5.26
2022-11-06T17:23:38.896Z,5.18
2022-11-06T17:26:15.111Z,5.14
2022-11-06T17:28:44.519Z,5.15
2022-11-06T17:31:20.200Z,5.09
2022-11-06T17:33:49.817Z,5.02
2022-11-06T17:36:22.709Z,5.00
2022-11-06T17:38:53.230Z,5.02
2022-11-06T17:41:30.569Z,4.99
2022-11-06T17:44:02.653Z,4.96
2022-11-06T17:46:36.815Z,4.94
2022-11-06T17:49:06.377Z,4.91
2022-11-06T17:51:53.240Z,4.87
2022-11-06T17:54:26.730Z,4.82
2022-11-06T17:56:57.120Z,4.75
2022-11-06T17:59:26.774Z,4.70
2022-11-06T18:01:58.291Z,4.68
2022-11-06T18:04:31.276Z,4.64
2022-11-06T18:07:01.145Z,4.64
2022-11-06T18:09:30.825Z,4.64
2022-11-06T18:12:00.411Z,4.62
2022-11-06T18:14:29.906Z,4.64
2022-11-06T18:17:01.034Z,4.65
2022-11-06T18:19:30.433Z,4.65
2022-11-06T18:22:05.368Z,4.66
2022-11-06T18:24:38.595Z,4.68
2022-11-06T18:27:08.089Z,4.68
2022-11-06T18:29:37.443Z,4.69
2022-11-06T18:32:08.363Z,4.70
2022-11-06T18:34:37.767Z,4.72
2022-11-06T18:37:07.183Z,4.77
2022-11-06T18:39:36.575Z,4.77
2022-11-06T18:42:06.056Z,4.75
2022-11-06T18:44:40.443Z,4.78
2022-11-06T18:47:11.411Z,4.78
2022-11-06T18:49:40.896Z,4.79
2022-11-06T18:52:10.511Z,4.86
2022-11-06T18:54:40.702Z,4.98
2022-11-06T18:57:10.344Z,5.12
2022-11-06T18:59:39.794Z,5.28
2022-11-06T19:02:11.300Z,5.37
2022-11-06T19:04:40.949Z,5.36
2022-11-06T19:07:10.350Z,5.44
2022-11-06T19:09:39.743Z,5.51
2022-11-06T19:12:09.747Z,5.58
2022-11-06T19:14:39.143Z,5.56
2022-11-06T19:17:09.888Z,5.69
2022-11-06T19:19:39.288Z,5.85
2022-11-06T19:22:10.573Z,5.86
2022-11-06T19:24:40.101Z,5.97
2022-11-06T19:27:11.635Z,6.06
2022-11-06T19:29:41.074Z,6.08
2022-11-06T19:32:11.925Z,6.09
2022-11-06T19:34:41.713Z,6.13
2022-11-06T19:37:11.101Z,6.10
2022-11-06T19:39:40.924Z,6.11
2022-11-06T19:42:10.300Z,6.08
2022-11-06T19:44:39.683Z,6.08
2022-11-06T19:47:09.135Z,6.07
2022-11-06T19:49:39.927Z,6.07
2022-11-06T19:52:42.441Z,6.03
2022-11-06T19:55:24.928Z,6.00
2022-11-06T19:57:49.275Z,6.05
2022-11-06T20:00:19.214Z,6.05
2022-11-06T20:02:50.820Z,6.10
2022-11-06T20:05:21.879Z,6.13
2022-11-06T20:07:51.440Z,6.09
2022-11-06T20:10:20.817Z,6.06
2022-11-06T20:12:50.262Z,6.03
2022-11-06T20:15:23.802Z,6.03
2022-11-06T20:17:53.831Z,6.00
2022-11-06T20:20:25.256Z,5.98
2022-11-06T20:22:54.752Z,5.97
2022-11-06T20:25:24.155Z,5.97
2022-11-06T20:27:53.655Z,5.95
2022-11-06T20:30:23.283Z,5.94
2022-11-06T20:32:52.707Z,5.95
2022-11-06T20:35:22.149Z,5.94
2022-11-06T20:37:52.960Z,5.93
2022-11-06T20:40:22.996Z,5.94
2022-11-06T20:42:52.436Z,5.95
2022-11-06T20:45:22.065Z,5.97
2022-11-06T20:47:51.509Z,6.06
2022-11-06T20:50:21.030Z,6.22
2022-11-06T20:52:51.808Z,6.33
2022-11-06T20:55:21.231Z,6.41
2022-11-06T20:57:50.605Z,6.51
2022-11-06T21:00:23.592Z,6.60
2022-11-06T21:02:57.536Z,6.69
2022-11-06T21:05:29.956Z,6.76
2022-11-06T21:08:00.710Z,6.81
2022-11-06T21:10:30.117Z,6.86
2022-11-06T21:13:00.183Z,6.87
2022-11-06T21:15:29.574Z,6.94
2022-11-06T21:17:59.073Z,7.00
2022-11-06T21:20:28.470Z,7.03
2022-11-06T21:22:57.936Z,7.07
2022-11-06T21:25:28.663Z,7.15
2022-11-06T21:27:58.383Z,7.20
2022-11-06T21:30:27.784Z,7.31
2022-11-06T21:32:57.180Z,7.32
2022-11-06T21:35:26.577Z,7.37
2022-11-06T21:37:55.982Z,7.43
2022-11-06T21:40:26.594Z,7.58
2022-11-06T21:42:57.407Z,7.71
2022-11-06T21:45:27.306Z,7.75
2022-11-06T21:47:56.704Z,7.90
2022-11-06T21:50:29.920Z,7.97
2022-11-06T21:53:17.163Z,7.99
2022-11-06T21:56:02.567Z,7.90
2022-11-06T21:58:33.493Z,7.92
2022-11-06T22:01:04.950Z,7.90
2022-11-06T22:03:34.956Z,7.89
2022-11-06T22:06:10.297Z,8.03
2022-11-06T22:08:42.006Z,8.29
2022-11-06T22:11:18.044Z,8.65
2022-11-06T22:13:51.845Z,8.79
2022-11-06T22:16:24.919Z,8.76
2022-11-06T22:18:54.513Z,8.82
2022-11-06T22:21:26.871Z,8.77
2022-11-06T22:23:56.810Z,8.73
2022-11-06T22:26:30.070Z,8.75
2022-11-06T22:29:02.419Z,8.78
2022-11-06T22:31:32.064Z,8.79
2022-11-06T22:34:01.621Z,8.76
2022-11-06T22:36:31.185Z,8.71
2022-11-06T22:39:05.319Z,8.69
2022-11-06T22:41:34.859Z,8.70
2022-11-06T22:44:07.323Z,8.66
2022-11-06T22:46:37.028Z,8.68
2022-11-06T22:49:07.159Z,8.59
2022-11-06T22:51:36.995Z,8.53
2022-11-06T22:54:07.049Z,8.51
2022-11-06T22:56:36.616Z,8.52
2022-11-06T22:59:09.587Z,8.53
2022-11-06T23:01:42.763Z,8.67
2022-11-06T23:04:15.793Z,8.65
2022-11-06T23:06:46.533Z,8.63
2022-11-06T23:09:16.304Z,8.67
2022-11-06T23:11:47.805Z,8.77
2022-11-06T23:14:18.571Z,8.75
2022-11-06T23:17:00.746Z,8.76
2022-11-06T23:19:32.925Z,8.75
2022-11-06T23:22:19.884Z,8.83
2022-11-06T23:24:49.337Z,8.87
2022-11-06T23:27:20.577Z,8.96
2022-11-06T23:29:51.357Z,8.98
2022-11-06T23:32:20.800Z,8.99
2022-11-06T23:34:51.811Z,9.01
2022-11-06T23:37:21.314Z,9.04
2022-11-06T23:39:50.808Z,9.05
2022-11-06T23:42:23.399Z,9.00
2022-11-06T23:45:11.709Z,9.16
2022-11-06T23:47:41.121Z,9.17
2022-11-06T23:50:11.136Z,9.31
2022-11-06T23:52:40.632Z,9.31
2022-11-06T23:55:10.875Z,9.35
2022-11-06T23:57:40.351Z,9.34
